createdAt,value
2023-04-14T00:01:31.727Z,57.08
2023-04-14T00:04:01.329Z,57.19
2023-04-14T00:06:30.122Z,57.33
2023-04-14T00:09:00.850Z,57.33
2023-04-14T00:11:29.770Z,57.26
2023-04-14T00:13:58.632Z,57.17
2023-04-14T00:16:28.107Z,57.25
2023-04-14T00:18:56.716Z,57.28
2023-04-14T00:21:25.299Z,57.28
2023-04-14T00:23:56.954Z,57.17
2023-04-14T00:26:25.556Z,57.12
2023-04-14T00:28:54.221Z,57.04
2023-04-14T00:31:26.329Z,57.04
2023-04-14T00:33:54.575Z,57.09
2023-04-14T00:36:23.048Z,57.17
2023-04-14T00:38:51.421Z,57.22
2023-04-14T00:41:19.897Z,57.27
2023-04-14T00:43:48.583Z,57.24
2023-04-14T00:46:17.583Z,57.27
2023-04-14T00:48:46.059Z,57.33
2023-04-14T00:51:14.440Z,57.32
2023-04-14T00:53:42.924Z,57.46
2023-04-14T00:56:12.010Z,57.50
2023-04-14T00:58:41.077Z,57.61
2023-04-14T01:01:09.319Z,57.46
2023-04-14T01:03:39.650Z,57.48
2023-04-14T01:06:08.817Z,57.53
2023-04-14T01:08:37.491Z,57.59
2023-04-14T01:11:18.365Z,57.64
2023-04-14T01:14:24.635Z,57.59
2023-04-14T01:16:56.030Z,57.63
2023-04-14T01:19:34.902Z,57.79
2023-04-14T01:22:06.995Z,57.87
2023-04-14T01:25:09.849Z,58.05
2023-04-14T01:28:06.704Z,57.99
2023-04-14T01:30:41.324Z,58.18
2023-04-14T01:33:12.156Z,58.20
2023-04-14T01:35:46.575Z,58.22
2023-04-14T01:38:22.261Z,58.24
2023-04-14T01:40:52.133Z,58.25
2023-04-14T01:43:24.753Z,58.27
2023-04-14T01:45:53.735Z,58.28
2023-04-14T01:48:23.865Z,58.32
2023-04-14T01:50:52.307Z,58.39
2023-04-14T01:53:21.010Z,58.48
2023-04-14T01:55:49.984Z,58.42
2023-04-14T01:58:18.892Z,58.50
2023-04-14T02:00:47.426Z,58.48
2023-04-14T02:03:16.647Z,58.59
2023-04-14T02:05:45.749Z,58.51
2023-04-14T02:08:14.738Z,58.63
2023-04-14T02:10:44.756Z,58.67
2023-04-14T02:13:18.051Z,58.66
2023-04-14T02:15:48.601Z,58.74
2023-04-14T02:18:19.658Z,58.67
2023-04-14T02:20:48.270Z,58.88
2023-04-14T02:23:28.511Z,58.79
2023-04-14T02:26:06.054Z,58.91
2023-04-14T02:28:37.874Z,58.84
2023-04-14T02:31:09.286Z,58.92
2023-04-14T02:33:37.880Z,58.97
2023-04-14T02:36:19.425Z,58.87
2023-04-14T02:39:10.742Z,58.79
2023-04-14T02:41:39.737Z,58.70
2023-04-14T02:44:19.480Z,58.78
2023-04-14T02:47:04.282Z,58.80
2023-04-14T02:49:38.322Z,58.75
2023-04-14T02:52:07.313Z,58.75
2023-04-14T02:54:36.967Z,58.66
2023-04-14T02:57:05.749Z,58.68
2023-04-14T02:59:34.940Z,58.82
2023-04-14T03:02:07.060Z,59.09
2023-04-14T03:04:38.649Z,59.37
2023-04-14T03:07:12.463Z,59.49
2023-04-14T03:09:41.360Z,59.47
2023-04-14T03:12:13.016Z,59.45
2023-04-14T03:14:42.417Z,59.44
2023-04-14T03:17:11.616Z,59.40
2023-04-14T03:19:42.034Z,59.36
2023-04-14T03:22:11.332Z,59.40
2023-04-14T03:24:39.720Z,59.28
2023-04-14T03:27:14.749Z,59.17
2023-04-14T03:29:46.008Z,58.94
2023-04-14T03:32:16.932Z,58.90
2023-04-14T03:34:56.673Z,58.90
2023-04-14T03:37:26.590Z,58.98
2023-04-14T03:40:00.851Z,58.87
2023-04-14T03:42:32.663Z,58.78
2023-04-14T03:45:01.248Z,58.81
2023-04-14T03:47:31.912Z,58.81
2023-04-14T03:50:02.131Z,58.75
2023-04-14T03:52:34.269Z,58.89
2023-04-14T03:55:06.749Z,59.01
2023-04-14T03:57:38.625Z,58.91
2023-04-14T04:00:09.628Z,58.91
2023-04-14T04:03:06.583Z,58.90
2023-04-14T04:05:35.588Z,58.68
2023-04-14T04:08:04.209Z,58.60
2023-04-14T04:10:34.379Z,58.74
2023-04-14T04:13:02.968Z,59.01
2023-04-14T04:15:36.978Z,59.15
2023-04-14T04:18:07.512Z,59.24
2023-04-14T04:20:37.833Z,59.41
2023-04-14T04:23:07.263Z,59.49
2023-04-14T04:25:37.144Z,59.51
2023-04-14T04:28:14.639Z,59.37
2023-04-14T04:30:45.786Z,59.11
2023-04-14T04:33:15.967Z,59.24
2023-04-14T04:35:45.199Z,59.28
2023-04-14T04:38:16.383Z,59.25
2023-04-14T04:44:11.670Z,59.14
2023-04-14T04:46:45.785Z,59.15
2023-04-14T04:49:17.436Z,59.17
2023-04-14T04:51:47.043Z,59.24
2023-04-14T04:54:16.240Z,59.17
2023-04-14T04:56:44.936Z,59.00
2023-04-14T04:59:13.406Z,58.83
2023-04-14T05:01:45.224Z,58.67
2023-04-14T05:04:13.886Z,58.53
2023-04-14T05:06:42.582Z,58.54
2023-04-14T05:09:12.971Z,58.62
2023-04-14T05:11:41.856Z,58.59
2023-04-14T05:14:10.336Z,58.58
2023-04-14T05:16:38.816Z,58.55
2023-04-14T05:19:12.004Z,58.51
2023-04-14T05:21:42.636Z,58.41
2023-04-14T05:24:11.753Z,58.43
2023-04-14T05:29:11.896Z,58.35
2023-04-14T05:31:40.725Z,58.26
2023-04-14T05:34:09.245Z,58.19
2023-04-14T05:36:38.645Z,58.14
2023-04-14T05:39:07.535Z,57.77
2023-04-14T05:41:39.601Z,57.64
2023-04-14T05:44:08.796Z,57.96
2023-04-14T05:46:37.412Z,57.89
2023-04-14T05:49:06.679Z,57.53
2023-04-14T05:51:35.154Z,57.15
2023-04-14T05:54:07.844Z,56.42
2023-04-14T05:56:37.029Z,55.06
2023-04-14T05:59:05.512Z,53.98
2023-04-14T06:01:34.007Z,52.35
2023-04-14T06:04:04.886Z,50.72
2023-04-14T06:06:33.531Z,49.71
2023-04-14T06:09:05.987Z,48.75
2023-04-14T06:11:36.191Z,47.54
2023-04-14T11:18:29.946Z,48.09
2023-04-14T11:21:02.573Z,48.13
2023-04-14T11:23:36.500Z,47.85
2023-04-14T11:26:11.123Z,47.66
2023-04-14T11:28:47.044Z,47.86
2023-04-14T11:31:17.330Z,48.26
2023-04-14T11:33:45.710Z,48.61
2023-04-14T11:36:16.854Z,48.73
2023-04-14T11:38:48.194Z,48.60
2023-04-14T11:41:16.606Z,48.50
2023-04-14T11:43:49.198Z,48.33
2023-04-14T11:46:20.975Z,48.33
2023-04-14T11:48:55.839Z,48.12
2023-04-14T11:51:32.770Z,48.09
2023-04-14T11:54:01.821Z,48.12
2023-04-14T11:56:30.811Z,48.19
2023-04-14T11:59:03.421Z,48.29
2023-04-14T12:01:33.294Z,48.19
2023-04-14T12:04:03.472Z,48.01
2023-04-14T12:06:36.197Z,48.02
2023-04-14T12:09:08.919Z,47.74
2023-04-14T12:11:37.880Z,47.48
2023-04-14T12:14:06.460Z,47.29
2023-04-14T12:16:35.036Z,47.37
2023-04-14T12:19:04.346Z,47.41
2023-04-14T12:21:33.546Z,47.29
2023-04-14T12:24:02.016Z,47.34
2023-04-14T12:26:32.955Z,47.50
2023-04-14T12:29:02.255Z,47.81
2023-04-14T12:31:31.178Z,48.07
2023-04-14T12:34:02.055Z,48.06
2023-04-14T12:36:47.992Z,48.02
2023-04-14T12:39:27.706Z,48.01
2023-04-14T12:41:58.649Z,48.21
2023-04-14T12:44:27.261Z,48.17
2023-04-14T12:46:56.475Z,47.96
2023-04-14T12:49:38.328Z,47.71
2023-04-14T12:52:08.572Z,47.48
2023-04-14T12:54:48.389Z,47.61
2023-04-14T12:57:21.998Z,47.72
2023-04-14T12:59:50.914Z,47.66
2023-04-14T13:02:19.731Z,47.71
2023-04-14T13:04:49.730Z,47.71
2023-04-14T13:07:20.520Z,47.88
2023-04-14T13:09:48.907Z,48.08
2023-04-14T13:12:17.600Z,48.22
2023-04-14T13:14:48.428Z,48.30
2023-04-14T13:17:17.211Z,48.36
2023-04-14T13:19:46.324Z,48.51
2023-04-14T13:22:16.828Z,48.64
2023-04-14T13:24:45.209Z,48.82
2023-04-14T13:27:13.691Z,48.63
2023-04-14T13:29:47.956Z,48.53
2023-04-14T13:32:16.967Z,48.58
2023-04-14T13:34:46.731Z,48.78
2023-04-14T13:37:16.218Z,48.77
2023-04-14T13:39:45.338Z,48.91
2023-04-14T13:42:15.388Z,48.84
2023-04-14T13:44:43.828Z,48.82
2023-04-14T13:47:12.705Z,49.08
2023-04-14T13:49:41.284Z,49.20
2023-04-14T13:52:09.765Z,49.11
2023-04-14T13:54:38.674Z,49.27
2023-04-14T13:57:08.363Z,49.33
2023-04-14T13:59:37.047Z,49.38
2023-04-14T14:02:06.917Z,49.37
2023-04-14T14:04:37.214Z,49.26
2023-04-14T14:07:06.072Z,49.21
2023-04-14T14:09:34.448Z,49.15
2023-04-14T14:12:03.444Z,49.33
2023-04-14T14:14:32.440Z,49.41
2023-04-14T14:17:01.817Z,49.45
2023-04-14T14:19:30.316Z,49.65
2023-04-14T14:21:59.409Z,49.88
2023-04-14T14:24:28.610Z,49.88
2023-04-14T14:26:57.292Z,49.85
2023-04-14T14:29:25.685Z,49.64
2023-04-14T14:31:54.150Z,49.69
2023-04-14T14:34:23.048Z,49.81
2023-04-14T14:36:51.531Z,49.80
2023-04-14T14:39:22.058Z,49.71
2023-04-14T14:41:51.685Z,49.78
2023-04-14T14:44:20.138Z,50.04
2023-04-14T14:46:52.915Z,50.11
2023-04-14T14:49:21.695Z,50.16
2023-04-14T14:51:49.989Z,50.26
2023-04-14T14:54:18.326Z,50.55
2023-04-14T14:56:47.922Z,50.64
2023-04-14T14:59:16.810Z,50.55
2023-04-14T15:01:46.655Z,50.76
2023-04-14T15:04:16.713Z,51.01
2023-04-14T15:06:45.736Z,51.00
2023-04-14T15:09:14.636Z,51.46
2023-04-14T15:11:47.730Z,51.64
2023-04-14T15:14:16.840Z,51.74
2023-04-14T15:16:45.484Z,51.96
2023-04-14T15:19:15.770Z,52.01
2023-04-14T15:21:45.788Z,52.27
2023-04-14T15:24:14.574Z,52.42
2023-04-14T15:26:48.496Z,52.53
2023-04-14T15:29:19.632Z,52.75
2023-04-14T15:31:48.455Z,52.78
2023-04-14T15:34:17.420Z,52.99
2023-04-14T15:36:46.327Z,53.01
2023-04-14T15:39:14.802Z,53.01
2023-04-14T15:41:45.034Z,53.10
2023-04-14T15:44:14.323Z,53.22
2023-04-14T15:46:43.015Z,53.46
2023-04-14T15:49:11.579Z,53.58
2023-04-14T15:51:41.396Z,53.77
2023-04-14T15:54:09.896Z,53.87
2023-04-14T15:56:38.760Z,53.84
2023-04-14T15:59:07.544Z,53.71
2023-04-14T16:01:36.491Z,53.70
2023-04-14T16:04:05.644Z,53.77
2023-04-14T16:06:38.109Z,53.75
2023-04-14T16:09:06.795Z,53.61
2023-04-14T16:11:36.419Z,53.31
2023-04-14T16:14:09.386Z,53.29
2023-04-14T16:16:38.788Z,53.11
2023-04-14T16:19:07.170Z,53.06
2023-04-14T16:21:35.853Z,53.20
2023-04-14T16:24:04.756Z,53.26
2023-04-14T16:26:33.738Z,53.24
2023-04-14T16:29:03.042Z,53.26
2023-04-14T16:31:32.049Z,53.03
2023-04-14T16:34:01.035Z,52.94
2023-04-14T16:36:30.122Z,52.94
2023-04-14T16:38:58.752Z,52.85
2023-04-14T16:41:27.921Z,52.61
2023-04-14T16:43:56.388Z,52.68
2023-04-14T16:46:26.104Z,52.66
2023-04-14T16:48:54.887Z,52.54
2023-04-14T16:51:27.675Z,52.79
2023-04-14T16:53:56.861Z,53.03
2023-04-14T16:56:25.330Z,53.34
2023-04-14T16:58:53.511Z,53.56
2023-04-14T17:01:23.267Z,53.89
2023-04-14T17:03:52.270Z,54.05
2023-04-14T17:06:21.387Z,54.11
2023-04-14T17:08:49.865Z,54.28
2023-04-14T17:11:18.343Z,54.67
2023-04-14T17:13:47.036Z,54.87
2023-04-14T17:16:19.007Z,54.95
2023-04-14T17:18:48.697Z,55.10
2023-04-14T17:21:17.074Z,55.44
2023-04-14T17:23:55.705Z,55.61
2023-04-14T17:26:24.990Z,55.73
2023-04-14T17:28:53.267Z,55.86
2023-04-14T17:31:24.884Z,56.09
2023-04-14T17:33:54.326Z,56.34
2023-04-14T17:36:23.016Z,56.55
2023-04-14T17:38:51.915Z,56.67
2023-04-14T17:41:21.413Z,56.83
2023-04-14T17:43:54.090Z,57.06
2023-04-14T17:46:29.632Z,57.32
2023-04-14T17:48:58.424Z,57.55
2023-04-14T17:51:29.064Z,57.70
2023-04-14T17:53:58.262Z,57.85
2023-04-14T17:56:27.962Z,58.01
2023-04-14T17:58:57.072Z,58.21
2023-04-14T18:01:26.553Z,58.49
2023-04-14T18:03:55.477Z,58.65
2023-04-14T18:06:23.927Z,58.85
2023-04-14T18:08:58.611Z,59.03
2023-04-14T18:11:28.777Z,59.17
2023-04-14T18:13:58.283Z,59.30
2023-04-14T18:16:29.384Z,59.46
2023-04-14T18:18:59.138Z,59.65
2023-04-14T18:21:28.455Z,59.68
2023-04-14T18:26:28.171Z,59.99
2023-04-14T18:28:57.249Z,60.10
2023-04-14T18:31:25.787Z,60.20
2023-04-14T18:34:14.714Z,60.25
2023-04-14T18:36:44.319Z,60.24
2023-04-14T18:39:12.780Z,60.38
2023-04-14T18:41:45.782Z,60.48
2023-04-14T18:44:15.988Z,60.57
2023-04-14T18:46:45.059Z,60.58
2023-04-14T18:49:14.233Z,60.57
2023-04-14T18:51:42.558Z,60.49
2023-04-14T18:54:10.936Z,60.51
2023-04-14T18:56:42.281Z,60.64
2023-04-14T18:59:11.586Z,60.67
2023-04-14T19:01:43.165Z,60.82
2023-04-14T19:04:11.633Z,60.92
2023-04-14T19:06:40.808Z,61.10
2023-04-14T19:09:09.096Z,61.15
2023-04-14T19:11:42.767Z,61.23
2023-04-14T19:14:13.217Z,61.09
2023-04-14T19:16:42.007Z,61.08
2023-04-14T19:19:10.790Z,61.00
2023-04-14T19:21:40.910Z,60.96
2023-04-14T19:24:09.911Z,60.95
2023-04-14T19:26:41.046Z,60.83
2023-04-14T19:29:11.050Z,60.76
2023-04-14T19:31:39.685Z,60.72
2023-04-14T19:34:08.233Z,60.70
2023-04-14T19:36:38.038Z,60.65
2023-04-14T19:39:06.725Z,60.57
2023-04-14T19:41:35.824Z,60.55
2023-04-14T19:44:09.831Z,60.43
2023-04-14T19:46:40.803Z,60.44
2023-04-14T19:49:11.711Z,60.48
2023-04-14T19:51:40.713Z,60.61
2023-04-14T19:54:09.692Z,60.78
2023-04-14T19:56:38.581Z,60.89
2023-04-14T19:59:08.433Z,60.93
2023-04-14T20:01:37.432Z,60.93
2023-04-14T20:04:11.480Z,60.90
2023-04-14T20:06:42.956Z,60.89
2023-04-14T20:09:12.352Z,60.95
2023-04-14T20:11:40.842Z,61.09
2023-04-14T20:14:09.624Z,61.17
2023-04-14T20:16:40.899Z,61.20
2023-04-14T20:19:13.033Z,61.35
2023-04-14T20:21:41.313Z,61.47
2023-04-14T20:24:09.896Z,61.59
2023-04-14T20:26:43.002Z,61.60
2023-04-14T20:29:12.433Z,61.77
2023-04-14T20:31:43.014Z,61.93
2023-04-14T20:34:12.422Z,61.95
2023-04-14T20:36:42.231Z,62.20
2023-04-14T20:39:10.517Z,62.45
2023-04-14T20:41:40.113Z,62.36
2023-04-14T20:44:09.932Z,62.37
2023-04-14T20:46:38.702Z,62.48
2023-04-14T20:49:12.108Z,62.51
2023-04-14T20:51:41.103Z,62.48
2023-04-14T20:54:09.704Z,62.44
2023-04-14T20:56:41.029Z,62.55
2023-04-14T20:59:10.548Z,62.56
2023-04-14T21:01:39.804Z,62.55
2023-04-14T21:04:09.851Z,62.53
2023-04-14T21:06:38.846Z,62.66
2023-04-14T21:09:07.652Z,62.73
2023-04-14T21:11:37.759Z,62.60
2023-04-14T21:15:29.495Z,62.65
2023-04-14T21:16:56.406Z,62.54
2023-04-14T21:19:27.686Z,62.68
2023-04-14T21:22:00.552Z,62.80
2023-04-14T21:24:29.444Z,62.83
2023-04-14T21:26:58.329Z,62.87
2023-04-14T21:29:28.355Z,62.93
2023-04-14T21:31:57.454Z,63.01
2023-04-14T21:34:27.573Z,63.02
2023-04-14T21:36:57.776Z,63.08
2023-04-14T21:39:28.818Z,63.22
2023-04-14T21:41:58.124Z,63.24
2023-04-14T21:44:27.576Z,63.25
2023-04-14T21:46:56.130Z,63.22
2023-04-14T21:49:24.692Z,63.20
2023-04-14T21:51:53.478Z,63.40
2023-04-14T21:54:21.698Z,63.60
2023-04-14T21:56:50.846Z,63.92
2023-04-14T21:59:19.327Z,63.90
2023-04-14T22:01:49.464Z,63.87
2023-04-14T22:04:28.766Z,63.98
2023-04-14T22:07:05.564Z,64.13
2023-04-14T22:09:37.932Z,64.05
2023-04-14T22:12:07.535Z,63.22
2023-04-14T22:14:36.940Z,62.48
2023-04-14T22:17:06.255Z,62.63
2023-04-14T22:19:36.672Z,63.01
2023-04-14T22:22:05.556Z,63.21
2023-04-14T22:24:34.139Z,63.37
2023-04-14T22:27:03.948Z,63.39
2023-04-14T22:29:32.739Z,63.41
2023-04-14T22:32:05.661Z,63.46
2023-04-14T22:34:36.358Z,63.43
2023-04-14T22:37:05.554Z,63.26
2023-04-14T22:39:34.543Z,63.11
2023-04-14T22:42:03.017Z,63.12
2023-04-14T22:44:31.762Z,63.08
2023-04-14T22:47:04.085Z,63.10
2023-04-14T22:49:33.190Z,62.93
2023-04-14T22:52:01.591Z,62.78
2023-04-14T22:54:30.237Z,62.90
2023-04-14T22:56:59.436Z,62.98
2023-04-14T22:59:28.207Z,63.02
2023-04-14T23:01:59.827Z,62.92
2023-04-14T23:04:28.314Z,62.99
2023-04-14T23:06:56.951Z,63.09
2023-04-14T23:09:30.537Z,63.28
2023-04-14T23:11:59.737Z,63.69
2023-04-14T23:14:28.629Z,63.79
2023-04-14T23:17:03.251Z,63.73
2023-04-14T23:19:33.980Z,63.81
2023-04-14T23:22:03.180Z,63.88
2023-04-14T23:24:31.663Z,64.09
2023-04-14T23:27:02.189Z,64.12
2023-04-14T23:29:31.285Z,64.15
2023-04-14T23:31:59.767Z,64.12
2023-04-14T23:34:32.755Z,64.25
2023-04-14T23:37:01.230Z,64.31
2023-04-14T23:39:30.527Z,64.32
2023-04-14T23:42:01.879Z,64.42
2023-04-14T23:44:30.674Z,64.34
2023-04-14T23:46:59.012Z,64.29
2023-04-14T23:49:35.432Z,64.28
2023-04-14T23:52:04.914Z,64.23
2023-04-14T23:54:33.909Z,64.22
2023-04-14T23:57:07.816Z,64.26
2023-04-14T23:59:37.317Z,64.42
